< < Back
Terminal Aerodrome Forecast


Current Version              Previous Versions:   1  2  3  4  5  6  7  8  9  

Terminal Aerodrome Forecast

900
FTUS44 KOHX 232300
TAFBNA
TAF
KBNA 232324Z 2400/2424 03003KT P6SM BKN250
     FM241200 36003KT P6SM SCT250=



Latest METAR

133
SAUS70 KWBC 241900
MTRBNA
METAR KBNA 241853Z VRB05KT 10SM FEW140 SCT200 21/06 A3009 RMK AO2 SLP187
T02110061


USA.gov is the U.S. government's official web portal to all federal, state and local government web resources and services.